Time;durP1;ratioP1;P1;durP2;ratioP2;P2;SDS_P1;SDS_P2;PMS_P1;PMS_P2;Temp;Humidity;BMP_temperature;BMP_pressure;BME280_temperature;BME280_humidity;BME280_pressure;Samples;Min_cycle;Max_cycle;Signal;HPM_P1;HPM_P2
2024/01/30 00:00:04;;;;;;;20.73;8.05;;;;;;;2.17;67.24;102467.84;4972204;28;20042;-70
2024/01/30 00:02:31;;;;;;;15.93;7.57;;;;;;;2.24;67.10;102458.69;4971898;28;20415;-70
2024/01/30 00:04:58;;;;;;;15.27;6.80;;;;;;;2.19;66.83;102468.66;4971898;28;20058;-70
2024/01/30 00:07:24;;;;;;;20.02;7.55;;;;;;;2.17;66.78;102465.16;4972274;28;20129;-70
2024/01/30 00:09:51;;;;;;;18.08;7.70;;;;;;;2.29;66.22;102461.28;4972259;28;20054;-69
2024/01/30 00:12:18;;;;;;;16.05;7.20;;;;;;;2.19;66.58;102460.63;4971780;28;20134;-70
2024/01/30 00:14:45;;;;;;;24.00;7.63;;;;;;;2.15;66.62;102469.66;4971888;28;20047;-69
2024/01/30 00:17:11;;;;;;;16.48;7.20;;;;;;;2.22;66.74;102467.69;4971835;28;20054;-70
2024/01/30 00:19:38;;;;;;;14.20;6.93;;;;;;;2.20;66.71;102466.88;4972163;28;20050;-69
2024/01/30 00:22:05;;;;;;;18.67;7.60;;;;;;;2.18;66.73;102461.56;4971158;28;20562;-69
2024/01/30 00:24:31;;;;;;;13.77;7.07;;;;;;;2.13;66.94;102468.81;4971831;28;20511;-69
2024/01/30 00:26:58;;;;;;;20.25;7.43;;;;;;;2.08;67.31;102468.06;4972555;28;20070;-69
2024/01/30 00:29:30;;;;;;;16.48;7.25;;;;;;;2.02;67.34;102470.88;4972965;28;20047;-69
2024/01/30 00:31:56;;;;;;;15.23;5.03;;;;;;;2.04;67.14;102461.00;4972351;28;20043;-70
2024/01/30 00:34:24;;;;;;;15.90;6.97;;;;;;;1.99;67.77;102466.50;4955880;28;20054;-69
2024/01/30 00:36:50;;;;;;;15.20;7.47;;;;;;;1.93;67.73;102461.28;4955229;28;20047;-69
2024/01/30 00:39:19;;;;;;;19.80;7.10;;;;;;;1.96;67.67;102468.34;4974610;28;20134;-70
2024/01/30 00:41:46;;;;;;;18.45;7.15;;;;;;;1.92;67.54;102464.00;4995130;28;20054;-69
2024/01/30 00:44:12;;;;;;;18.95;7.80;;;;;;;1.90;67.96;102457.81;4995181;28;20345;-69
2024/01/30 00:46:39;;;;;;;15.95;6.40;;;;;;;1.85;67.82;102455.22;4995430;28;20499;-69
2024/01/30 00:49:05;;;;;;;15.68;7.05;;;;;;;1.81;68.24;102458.91;4995137;28;20085;-69
2024/01/30 00:51:32;;;;;;;16.35;6.75;;;;;;;1.84;67.68;102454.34;4994956;28;20046;-69
2024/01/30 00:53:59;;;;;;;17.50;6.65;;;;;;;1.84;68.04;102454.34;4994369;28;20562;-70
2024/01/30 00:56:25;;;;;;;17.58;7.80;;;;;;;1.81;67.86;102454.44;4995060;28;20466;-70
2024/01/30 00:58:52;;;;;;;15.40;7.43;;;;;;;1.76;68.25;102450.97;4995082;28;20101;-69
2024/01/30 01:01:18;;;;;;;15.65;7.72;;;;;;;1.79;68.27;102450.94;4994372;28;20170;-69
2024/01/30 01:03:45;;;;;;;18.25;7.13;;;;;;;1.75;68.36;102443.00;4994989;28;20062;-69
2024/01/30 01:06:12;;;;;;;21.33;7.72;;;;;;;1.74;68.37;102447.47;4994680;28;20050;-69
2024/01/30 01:08:39;;;;;;;13.65;7.38;;;;;;;1.76;67.95;102450.97;4994664;28;20046;-70
2024/01/30 01:11:07;;;;;;;16.35;7.45;;;;;;;1.74;68.45;102463.50;4994801;28;20055;-69
2024/01/30 01:13:33;;;;;;;16.35;7.43;;;;;;;1.73;68.36;102455.53;4994570;28;20046;-69
2024/01/30 01:16:00;;;;;;;19.08;8.00;;;;;;;1.70;68.65;102464.53;4994588;28;20050;-69
2024/01/30 01:18:27;;;;;;;17.50;6.90;;;;;;;1.68;68.75;102465.44;4977120;28;20053;-70
2024/01/30 01:20:54;;;;;;;22.02;7.50;;;;;;;1.64;68.83;102470.00;4994602;28;20046;-69
2024/01/30 01:23:20;;;;;;;19.80;7.43;;;;;;;1.67;69.18;102461.00;4994426;28;20050;-70
2024/01/30 01:25:47;;;;;;;22.58;6.85;;;;;;;1.58;69.03;102467.47;4994846;28;20442;-69
2024/01/30 01:28:14;;;;;;;14.57;7.40;;;;;;;1.56;69.27;102464.81;4993801;28;20551;-69
2024/01/30 01:30:40;;;;;;;17.88;7.88;;;;;;;1.58;69.17;102462.97;4975175;28;20043;-70
2024/01/30 01:33:09;;;;;;;18.33;8.02;;;;;;;1.68;68.71;102457.41;4975089;28;20051;-69
2024/01/30 01:35:35;;;;;;;18.83;7.22;;;;;;;1.62;69.07;102466.50;4974946;28;20069;-69
2024/01/30 01:38:02;;;;;;;20.23;8.27;;;;;;;1.61;69.13;102472.75;4975081;28;20086;-69
2024/01/30 01:40:29;;;;;;;19.10;7.82;;;;;;;1.58;69.12;102467.47;4974565;28;20462;-69
2024/01/30 01:42:56;;;;;;;15.55;7.32;;;;;;;1.58;69.27;102464.78;4975675;28;20065;-69
2024/01/30 01:45:23;;;;;;;23.67;7.53;;;;;;;1.57;69.39;102465.69;4974871;28;20122;-69
2024/01/30 01:47:53;;;;;;;17.38;8.07;;;;;;;1.58;69.11;102462.09;4974658;28;20046;-69
2024/01/30 01:50:21;;;;;;;16.08;7.22;;;;;;;1.60;69.20;102446.91;4973739;28;20443;-69
2024/01/30 01:52:49;;;;;;;19.52;7.53;;;;;;;1.58;69.23;102459.44;4973883;28;20042;-69
2024/01/30 01:55:21;;;;;;;17.40;7.82;;;;;;;1.60;69.47;102460.25;4974060;28;20056;-69
2024/01/30 01:57:49;;;;;;;16.35;7.03;;;;;;;1.57;69.29;102457.69;4957450;28;20093;-69
2024/01/30 02:00:19;;;;;;;18.65;7.00;;;;;;;1.51;69.50;102455.13;4956783;28;20058;-69
2024/01/30 02:02:46;;;;;;;17.88;7.32;;;;;;;1.46;69.66;102457.03;4974111;28;20526;-69
2024/01/30 02:08:59;;;;;;;18.20;7.90;;;;;;;1.40;69.85;102449.16;4973381;28;20081;-69
2024/01/30 02:11:26;;;;;;;19.13;7.78;;;;;;;1.38;70.11;102453.66;4973508;28;20113;-69
2024/01/30 02:13:53;;;;;;;17.75;7.47;;;;;;;1.36;70.10;102451.03;4973682;28;20105;-69
2024/01/30 02:16:19;;;;;;;19.65;7.88;;;;;;;1.37;70.32;102452.78;4973446;28;20043;-69
2024/01/30 02:18:47;;;;;;;15.95;7.90;;;;;;;1.36;70.50;102455.50;4974027;28;20129;-69
2024/01/30 02:21:16;;;;;;;21.27;7.90;;;;;;;1.38;70.48;102459.00;4973483;28;20050;-69
2024/01/30 02:23:50;;;;;;;20.42;7.68;;;;;;;1.41;70.55;102462.47;4972953;28;20109;-69
2024/01/30 02:26:16;;;;;;;20.08;7.78;;;;;;;1.40;71.02;102463.41;4973515;28;20110;-69
2024/01/30 02:28:43;;;;;;;14.63;6.90;;;;;;;1.36;70.35;102455.50;4973004;28;20043;-69
2024/01/30 02:31:09;;;;;;;14.73;7.15;;;;;;;1.36;71.14;102464.38;4958652;28;20117;-70
2024/01/30 02:33:36;;;;;;;23.75;7.75;;;;;;;1.37;70.84;102462.59;4991540;28;20038;-70
2024/01/30 02:36:03;;;;;;;18.27;8.15;;;;;;;1.39;70.74;102458.09;4991081;28;20076;-70
2024/01/30 02:38:30;;;;;;;15.80;7.30;;;;;;;1.39;70.65;102455.41;4989689;28;20132;-71
2024/01/30 02:40:56;;;;;;;16.40;7.75;;;;;;;1.38;71.21;102461.69;4990061;28;20050;-70
2024/01/30 02:43:23;;;;;;;23.92;7.57;;;;;;;1.33;70.75;102451.09;4991082;28;20046;-70
2024/01/30 02:45:49;;;;;;;17.88;7.38;;;;;;;1.39;70.89;102450.06;4990938;28;20100;-70
2024/01/30 02:48:16;;;;;;;16.42;7.80;;;;;;;1.38;71.01;102451.00;4991500;28;20057;-70
2024/01/30 02:50:43;;;;;;;17.20;7.45;;;;;;;1.34;71.35;102450.19;4992171;28;20042;-70
2024/01/30 02:53:09;;;;;;;16.63;7.88;;;;;;;1.32;71.54;102448.44;4989002;28;20483;-70
2024/01/30 02:55:36;;;;;;;19.75;7.78;;;;;;;1.33;71.53;102442.16;4990651;28;20046;-69
2024/01/30 02:58:02;;;;;;;18.52;7.68;;;;;;;1.29;71.38;102436.91;4991173;28;20053;-69
2024/01/30 03:00:29;;;;;;;17.95;7.88;;;;;;;1.26;71.76;102434.31;4990532;28;20057;-69
2024/01/30 03:02:56;;;;;;;16.05;7.43;;;;;;;1.29;71.70;102439.56;4989888;28;20049;-70
2024/01/30 03:05:23;;;;;;;18.25;8.10;;;;;;;1.29;71.62;102438.69;4990892;28;20105;-69
2024/01/30 03:07:50;;;;;;;16.65;7.60;;;;;;;1.24;72.12;102436.16;4990403;28;20514;-70
2024/01/30 03:10:16;;;;;;;17.83;7.68;;;;;;;1.24;72.22;102441.50;4990900;28;20491;-70
2024/01/30 03:12:43;;;;;;;13.90;7.07;;;;;;;1.21;72.77;102433.53;4974046;28;20039;-68
2024/01/30 03:15:10;;;;;;;18.42;7.15;;;;;;;1.17;72.38;102429.16;4990056;28;20066;-69
2024/01/30 03:17:36;;;;;;;21.45;7.95;;;;;;;1.14;72.77;102433.69;4988822;28;20046;-70
2024/01/30 03:20:04;;;;;;;18.30;8.63;;;;;;;1.13;72.73;102426.56;4989181;28;20061;-71
2024/01/30 03:22:31;;;;;;;19.35;8.27;;;;;;;1.14;72.66;102426.56;4989992;28;20051;-70
2024/01/30 03:24:57;;;;;;;22.60;8.07;;;;;;;1.13;72.98;102430.13;4989787;28;20096;-70
2024/01/30 03:27:24;;;;;;;22.70;8.30;;;;;;;1.11;73.03;102434.63;4989533;28;20050;-71
2024/01/30 03:29:51;;;;;;;20.05;8.02;;;;;;;1.12;72.89;102430.16;4958199;28;20503;-71
2024/01/30 03:32:18;;;;;;;17.02;7.75;;;;;;;1.09;72.76;102425.78;4971409;28;20046;-71
2024/01/30 03:34:45;;;;;;;17.30;7.93;;;;;;;1.08;73.13;102426.69;4985751;28;20038;-72
2024/01/30 03:37:12;;;;;;;28.30;7.65;;;;;;;1.03;73.39;102423.22;4981501;28;20053;-70
2024/01/30 03:39:39;;;;;;;18.23;8.90;;;;;;;1.05;73.29;102426.78;4990901;28;20488;-70
2024/01/30 03:42:06;;;;;;;15.10;7.25;;;;;;;1.02;73.63;102424.13;4973289;28;20054;-70
2024/01/30 03:44:33;;;;;;;20.98;8.00;;;;;;;1.04;73.37;102427.66;4990877;28;20050;-70
2024/01/30 03:46:59;;;;;;;15.73;7.32;;;;;;;1.04;73.39;102422.31;4989462;28;20471;-70
2024/01/30 03:49:26;;;;;;;15.30;7.22;;;;;;;1.03;73.36;102425.03;4988910;28;20100;-71
2024/01/30 03:51:53;;;;;;;16.65;7.53;;;;;;;1.00;73.57;102417.97;4988432;28;20050;-71
2024/01/30 03:54:20;;;;;;;17.98;7.85;;;;;;;0.98;73.92;102433.16;4988761;28;20050;-71
2024/01/30 03:56:47;;;;;;;17.42;8.73;;;;;;;0.96;73.64;102426.97;4978185;28;20051;-70
2024/01/30 03:59:13;;;;;;;19.63;8.23;;;;;;;0.92;73.88;102422.56;4975542;28;20046;-71
2024/01/30 04:01:40;;;;;;;25.23;9.05;;;;;;;0.88;74.05;102426.25;4990570;28;20513;-71
2024/01/30 04:04:07;;;;;;;20.13;8.93;;;;;;;0.90;74.21;102429.75;4989946;28;20053;-71
2024/01/30 04:06:34;;;;;;;20.67;8.13;;;;;;;0.91;74.33;102420.81;4989782;28;20141;-70
2024/01/30 04:09:00;;;;;;;16.48;8.00;;;;;;;0.88;74.23;102427.13;4990599;28;20057;-69
2024/01/30 04:11:27;;;;;;;15.45;7.93;;;;;;;0.95;73.91;102423.41;4990523;28;20046;-69
2024/01/30 04:13:53;;;;;;;15.13;7.03;;;;;;;0.92;74.05;102417.22;4992485;28;20105;-69
2024/01/30 04:16:22;;;;;;;20.15;8.82;;;;;;;0.92;74.38;102425.25;4977162;28;20120;-71
2024/01/30 04:18:49;;;;;;;17.70;7.47;;;;;;;0.96;74.33;102430.50;4977161;28;20042;-70
2024/01/30 04:21:16;;;;;;;17.52;7.93;;;;;;;0.97;74.52;102421.59;4990107;28;20055;-70
2024/01/30 04:23:42;;;;;;;19.42;7.97;;;;;;;1.03;74.21;102425.91;4974479;28;20070;-70
2024/01/30 04:26:09;;;;;;;18.23;7.55;;;;;;;1.02;74.24;102423.25;4974567;28;20066;-69
2024/01/30 04:28:35;;;;;;;15.82;6.97;;;;;;;0.99;74.15;102424.22;4974272;28;20070;-69
2024/01/30 04:31:02;;;;;;;21.48;9.25;;;;;;;0.98;74.58;102417.13;4974764;28;20046;-69
2024/01/30 04:33:29;;;;;;;17.58;8.15;;;;;;;1.03;74.42;102417.88;4974791;28;20098;-70
2024/01/30 04:35:56;;;;;;;17.65;7.75;;;;;;;1.04;74.35;102410.75;4974607;28;20058;-70
2024/01/30 04:38:22;;;;;;;22.92;8.77;;;;;;;1.03;73.71;102415.22;4974867;28;20053;-70
2024/01/30 04:40:49;;;;;;;15.82;7.90;;;;;;;0.98;74.48;102403.75;4975028;28;20101;-71
2024/01/30 04:43:15;;;;;;;16.08;7.93;;;;;;;0.98;74.29;102412.66;4990245;28;20120;-70
2024/01/30 04:45:42;;;;;;;19.17;8.57;;;;;;;1.00;74.23;102415.28;4990425;28;20047;-71
2024/01/30 04:48:09;;;;;;;22.75;7.72;;;;;;;0.96;74.27;102414.47;4979133;28;20046;-70
2024/01/30 04:50:36;;;;;;;15.73;7.40;;;;;;;0.98;74.27;102406.44;4977206;28;20050;-70
2024/01/30 04:53:02;;;;;;;19.23;8.68;;;;;;;0.98;74.62;102406.44;4975333;28;20049;-70
2024/01/30 04:55:29;;;;;;;18.15;7.35;;;;;;;0.99;74.17;102410.84;4993993;28;20043;-71
2024/01/30 04:57:56;;;;;;;15.55;7.68;;;;;;;0.99;73.91;102413.53;4993233;28;20522;-70
2024/01/30 05:00:23;;;;;;;15.73;7.43;;;;;;;0.99;74.42;102413.53;4993976;28;20050;-71
2024/01/30 05:02:50;;;;;;;19.92;8.50;;;;;;;0.98;74.25;102411.78;4993916;28;20046;-70
2024/01/30 05:05:16;;;;;;;17.70;7.03;;;;;;;1.06;74.35;102415.16;4993264;28;20120;-70
2024/01/30 05:07:43;;;;;;;18.80;8.57;;;;;;;1.07;73.82;102410.69;4993181;28;20105;-70
2024/01/30 05:10:09;;;;;;;19.08;8.80;;;;;;;1.10;74.20;102408.81;4992896;28;20097;-70
2024/01/30 05:12:36;;;;;;;20.63;8.57;;;;;;;1.04;74.09;102416.97;4993850;28;20399;-69
2024/01/30 05:15:03;;;;;;;19.13;8.20;;;;;;;1.02;74.27;102407.22;4980869;28;20128;-69
2024/01/30 05:17:30;;;;;;;16.38;7.68;;;;;;;1.04;74.12;102413.41;4993328;28;20046;-69
2024/01/30 05:19:56;;;;;;;15.70;7.93;;;;;;;1.05;74.18;102418.75;4976097;28;20050;-70
2024/01/30 05:22:23;;;;;;;19.10;8.32;;;;;;;1.07;73.83;102410.69;4992352;28;20057;-70
2024/01/30 05:24:50;;;;;;;19.55;8.27;;;;;;;1.11;74.10;102415.94;4992368;28;20439;-70
2024/01/30 05:27:16;;;;;;;20.30;8.85;;;;;;;1.14;73.96;102417.63;4993855;28;20049;-70
2024/01/30 05:29:43;;;;;;;17.55;8.35;;;;;;;1.06;73.68;102414.28;4980291;28;20739;-70
2024/01/30 05:32:10;;;;;;;19.70;7.72;;;;;;;1.06;73.86;102417.84;4973923;28;20105;-70
2024/01/30 05:34:37;;;;;;;17.45;7.03;;;;;;;1.07;74.09;102416.91;4991121;28;20521;-69
2024/01/30 05:37:03;;;;;;;16.65;7.57;;;;;;;1.07;73.77;102403.56;4993092;28;20042;-71
2024/01/30 05:39:32;;;;;;;15.63;7.93;;;;;;;1.02;73.86;102401.88;4992931;28;20523;-70
2024/01/30 05:41:59;;;;;;;22.33;7.85;;;;;;;0.99;73.82;102405.50;4992905;28;20415;-70
2024/01/30 05:44:26;;;;;;;21.63;7.72;;;;;;;1.04;74.11;102406.28;4991345;28;20056;-70
2024/01/30 05:46:53;;;;;;;21.38;8.85;;;;;;;1.04;74.07;102405.41;4992877;28;20104;-70
2024/01/30 05:49:20;;;;;;;18.05;8.20;;;;;;;0.97;73.55;102404.66;4978006;28;20055;-70
2024/01/30 05:51:46;;;;;;;19.95;8.25;;;;;;;0.95;73.84;102406.47;4973536;28;20047;-70
2024/01/30 05:54:13;;;;;;;15.02;8.35;;;;;;;0.97;74.26;102399.34;4981808;28;20065;-70
2024/01/30 05:56:43;;;;;;;22.80;9.68;;;;;;;0.97;73.96;102404.66;4992588;28;20050;-71
2024/01/30 05:59:09;;;;;;;18.92;7.75;;;;;;;1.07;74.31;102400.88;4975141;28;20054;-70
2024/01/30 06:01:36;;;;;;;14.40;7.53;;;;;;;1.10;74.24;102395.47;4992311;28;20058;-70
2024/01/30 06:04:03;;;;;;;18.65;8.30;;;;;;;1.19;73.66;102395.25;4992378;28;20052;-70
2024/01/30 06:06:30;;;;;;;19.05;8.05;;;;;;;1.18;73.49;102398.84;4991974;28;20080;-70
2024/01/30 06:08:57;;;;;;;17.02;8.40;;;;;;;1.21;72.94;102398.78;4982037;28;20502;-71
2024/01/30 06:11:23;;;;;;;20.85;8.23;;;;;;;1.25;73.19;102402.28;4991149;28;20101;-71
2024/01/30 06:13:50;;;;;;;16.73;9.25;;;;;;;1.25;73.09;102405.81;4991343;28;20488;-71
2024/01/30 06:16:16;;;;;;;16.85;8.65;;;;;;;1.25;72.73;102405.81;4992934;28;20129;-71
2024/01/30 06:18:43;;;;;;;17.83;8.82;;;;;;;1.17;72.86;102401.56;4992429;28;20057;-70
2024/01/30 06:21:09;;;;;;;21.55;8.48;;;;;;;1.22;73.17;102394.31;4992667;28;20125;-70
2024/01/30 06:23:38;;;;;;;19.75;8.70;;;;;;;1.23;72.44;102402.31;4992420;28;20567;-70
2024/01/30 06:26:07;;;;;;;19.23;9.45;;;;;;;1.23;72.42;102396.97;4990422;28;20050;-70
2024/01/30 06:28:33;;;;;;;19.55;8.27;;;;;;;1.27;72.66;102397.75;4973072;28;20102;-70
2024/01/30 06:31:01;;;;;;;18.42;7.72;;;;;;;1.26;72.36;102383.53;4992197;28;20046;-70
2024/01/30 06:33:28;;;;;;;18.40;9.00;;;;;;;1.24;72.54;102393.38;4991926;28;20050;-70
2024/01/30 06:35:55;;;;;;;21.85;8.65;;;;;;;1.23;72.68;102393.38;4991697;28;20100;-70
2024/01/30 06:38:21;;;;;;;19.58;9.05;;;;;;;1.21;72.80;102396.09;4982161;28;20051;-70
2024/01/30 06:40:48;;;;;;;22.50;8.32;;;;;;;1.14;73.13;102393.59;4991563;28;20057;-70
2024/01/30 06:43:14;;;;;;;16.80;8.85;;;;;;;1.16;73.01;102394.47;4992768;28;20046;-69
2024/01/30 06:45:42;;;;;;;21.98;9.73;;;;;;;1.14;72.79;102390.91;4991745;28;20077;-69
2024/01/30 06:48:09;;;;;;;21.52;9.50;;;;;;;1.11;73.15;102389.19;4991893;28;20056;-69
2024/01/30 06:50:35;;;;;;;16.80;8.68;;;;;;;1.11;73.14;102383.84;4991540;28;20053;-69
2024/01/30 06:53:02;;;;;;;21.98;8.73;;;;;;;1.11;73.31;102389.19;4991279;28;20164;-69
2024/01/30 06:55:29;;;;;;;21.98;10.18;;;;;;;1.14;73.36;102391.84;4991629;28;20104;-69
2024/01/30 06:57:55;;;;;;;21.60;8.98;;;;;;;1.14;73.28;102386.50;4991775;28;20432;-70
2024/01/30 07:00:23;;;;;;;26.75;10.20;;;;;;;1.23;72.75;102391.63;4974175;28;20053;-70
2024/01/30 07:02:50;;;;;;;18.27;8.70;;;;;;;1.21;72.99;102382.75;4991002;28;20053;-70
2024/01/30 07:05:17;;;;;;;21.90;8.98;;;;;;;1.24;72.91;102390.72;4992045;28;20569;-70
2024/01/30 07:07:44;;;;;;;25.08;8.40;;;;;;;1.25;72.79;102379.09;4991820;28;20046;-69
2024/01/30 07:10:10;;;;;;;25.00;10.13;;;;;;;1.25;73.14;102383.56;4991420;28;20073;-69
2024/01/30 07:12:37;;;;;;;25.83;9.35;;;;;;;1.24;72.81;102393.38;4991576;28;20048;-69
2024/01/30 07:15:07;;;;;;;22.15;8.90;;;;;;;1.29;72.93;102387.91;4991916;28;20495;-68
2024/01/30 07:17:35;;;;;;;24.98;8.95;;;;;;;1.37;72.75;102385.06;4991203;28;20050;-70
2024/01/30 07:20:04;;;;;;;19.42;9.00;;;;;;;1.36;72.49;102388.66;4991119;28;20062;-70
2024/01/30 07:22:31;;;;;;;19.30;9.38;;;;;;;1.41;71.95;102389.41;4991317;28;20088;-70
2024/01/30 07:24:58;;;;;;;22.45;8.43;;;;;;;1.43;72.47;102388.50;4991711;28;20112;-69
2024/01/30 07:27:24;;;;;;;16.30;8.30;;;;;;;1.48;72.30;102388.38;4991270;28;20423;-70
2024/01/30 07:29:51;;;;;;;20.63;9.70;;;;;;;1.55;72.04;102387.31;4977442;28;20050;-69
2024/01/30 07:32:18;;;;;;;21.55;9.52;;;;;;;1.61;71.52;102386.28;4972759;28;20070;-68
2024/01/30 07:34:45;;;;;;;19.15;9.38;;;;;;;1.57;71.32;102382.78;4972555;28;20132;-69
2024/01/30 07:37:28;;;;;;;21.38;8.90;;;;;;;1.62;71.58;102380.91;4971995;28;20466;-70
2024/01/30 07:39:56;;;;;;;28.67;9.70;;;;;;;1.65;71.30;102382.63;4972075;28;20407;-69
2024/01/30 07:42:22;;;;;;;23.20;8.50;;;;;;;1.73;70.51;102376.16;4970801;28;20555;-70
2024/01/30 07:44:49;;;;;;;17.25;9.32;;;;;;;1.79;70.24;102385.81;4972470;28;20144;-69
2024/01/30 07:47:16;;;;;;;23.95;9.25;;;;;;;1.82;70.25;102383.97;4972574;28;20055;-70
2024/01/30 07:49:43;;;;;;;24.98;10.30;;;;;;;1.83;70.03;102375.00;4971633;28;20111;-69
2024/01/30 07:52:10;;;;;;;23.25;9.50;;;;;;;1.88;70.05;102379.34;4971867;28;20055;-68
2024/01/30 07:54:49;;;;;;;26.95;9.60;;;;;;;1.88;69.67;102374.00;4971910;28;20563;-68
2024/01/30 07:57:16;;;;;;;27.45;9.70;;;;;;;1.91;70.15;102379.28;4972216;28;20046;-68
2024/01/30 07:59:46;;;;;;;21.10;9.88;;;;;;;1.88;70.13;102374.00;4972164;28;20049;-68
2024/01/30 08:02:13;;;;;;;19.67;8.93;;;;;;;1.95;69.50;102378.28;4971971;28;20578;-69
2024/01/30 08:04:40;;;;;;;19.35;9.35;;;;;;;1.92;69.80;102371.22;4971584;28;20047;-68
2024/01/30 08:07:06;;;;;;;20.83;9.95;;;;;;;2.02;69.77;102371.84;4971940;28;20138;-69
2024/01/30 08:09:34;;;;;;;23.58;8.85;;;;;;;2.02;69.35;102377.22;4972323;28;20506;-69
2024/01/30 08:12:01;;;;;;;24.38;10.13;;;;;;;2.06;69.20;102369.03;4972390;28;20178;-69
2024/01/30 08:14:28;;;;;;;21.30;10.20;;;;;;;2.13;69.55;102370.66;4972120;28;20046;-69
2024/01/30 08:16:55;;;;;;;19.80;9.82;;;;;;;2.08;69.34;102377.06;4971861;28;20053;-69
2024/01/30 08:19:22;;;;;;;19.40;9.02;;;;;;;2.06;69.28;102363.69;4972165;28;20131;-70
2024/01/30 08:21:49;;;;;;;19.52;9.18;;;;;;;2.15;68.81;102367.94;4972015;28;20047;-69
2024/01/30 08:24:16;;;;;;;21.50;9.20;;;;;;;2.16;69.25;102364.31;4972660;28;20051;-69
2024/01/30 08:26:42;;;;;;;21.55;9.25;;;;;;;2.29;68.65;102371.13;4972078;28;20182;-69
2024/01/30 08:29:09;;;;;;;19.80;9.60;;;;;;;2.45;68.32;102366.22;4971952;28;20455;-68
2024/01/30 08:31:36;;;;;;;18.42;8.43;;;;;;;2.49;67.54;102370.56;4971888;28;20066;-69
2024/01/30 08:34:02;;;;;;;19.80;9.38;;;;;;;2.59;67.67;102363.16;4971172;28;20055;-69
2024/01/30 08:36:29;;;;;;;21.33;8.57;;;;;;;2.68;66.57;102357.53;4971275;28;20046;-69
2024/01/30 08:38:55;;;;;;;26.30;9.65;;;;;;;2.74;66.30;102353.81;4971481;28;20136;-69
2024/01/30 08:41:28;;;;;;;20.27;9.05;;;;;;;2.77;65.79;102351.91;4971538;28;20137;-69
2024/01/30 08:43:55;;;;;;;19.95;8.77;;;;;;;2.90;65.44;102358.63;4972013;28;20043;-68
2024/01/30 08:46:21;;;;;;;22.95;9.98;;;;;;;3.01;65.06;102355.66;4971577;28;20051;-69
2024/01/30 08:48:48;;;;;;;21.20;9.30;;;;;;;3.19;64.46;102352.41;4971413;28;20067;-71
2024/01/30 08:51:15;;;;;;;17.88;9.10;;;;;;;3.11;65.03;102350.88;4972407;28;20047;-68
2024/01/30 08:53:42;;;;;;;18.55;8.65;;;;;;;3.15;64.33;102353.41;4970860;28;20566;-68
2024/01/30 08:56:09;;;;;;;21.85;9.40;;;;;;;3.29;63.98;102350.31;4971687;28;20463;-68
2024/01/30 08:58:36;;;;;;;21.23;9.68;;;;;;;3.33;63.83;102351.97;4971099;28;20480;-68
2024/01/30 09:01:05;;;;;;;21.67;9.38;;;;;;;3.39;63.66;102349.09;4973235;28;20423;-68
2024/01/30 09:03:32;;;;;;;17.65;9.05;;;;;;;3.33;64.25;102351.97;4975076;28;20051;-69
2024/01/30 09:05:58;;;;;;;18.27;9.57;;;;;;;3.41;63.52;102349.91;4974999;28;20077;-68
2024/01/30 09:08:26;;;;;;;27.50;10.35;;;;;;;3.49;63.95;102353.22;4974304;28;20113;-68
2024/01/30 09:10:53;;;;;;;19.00;9.35;;;;;;;3.66;62.96;102346.44;4974556;28;20478;-68
2024/01/30 09:13:20;;;;;;;18.05;9.07;;;;;;;3.71;63.17;102336.41;4974039;28;20047;-68
2024/01/30 09:15:47;;;;;;;17.65;9.15;;;;;;;3.81;62.59;102341.41;4974562;28;20492;-68
2024/01/30 09:18:14;;;;;;;18.13;9.30;;;;;;;3.79;62.64;102339.72;4974404;28;20043;-68
2024/01/30 09:20:40;;;;;;;20.98;8.75;;;;;;;3.72;62.87;102338.16;4987532;28;20050;-68
2024/01/30 09:23:08;;;;;;;17.52;8.68;;;;;;;3.85;62.53;102345.75;4976614;28;20078;-67
2024/01/30 09:25:34;;;;;;;28.48;9.70;;;;;;;3.85;62.60;102347.56;4993739;28;20068;-68
2024/01/30 09:28:01;;;;;;;23.30;8.85;;;;;;;4.13;61.74;102344.81;4994211;28;20565;-68
2024/01/30 09:30:27;;;;;;;24.45;8.38;;;;;;;3.89;62.17;102348.31;4974734;28;20066;-69
2024/01/30 09:32:54;;;;;;;24.77;9.60;;;;;;;3.94;62.01;102349.94;4974571;28;20527;-68
2024/01/30 09:35:21;;;;;;;17.85;8.85;;;;;;;3.99;61.97;102347.94;4957127;28;20077;-69
2024/01/30 09:37:48;;;;;;;26.13;9.73;;;;;;;4.12;61.13;102351.97;4974592;28;20495;-69
2024/01/30 09:40:18;;;;;;;24.20;9.07;;;;;;;4.17;60.99;102348.25;4974162;28;20050;-68
2024/01/30 09:42:50;;;;;;;29.55;10.10;;;;;;;4.10;60.98;102345.75;4974078;28;20066;-69
2024/01/30 09:45:18;;;;;;;23.48;9.07;;;;;;;4.14;60.92;102352.81;4972129;28;20105;-69
2024/01/30 09:47:46;;;;;;;17.60;8.63;;;;;;;4.18;60.71;102347.31;4972207;28;20046;-68
2024/01/30 09:50:15;;;;;;;17.60;8.30;;;;;;;4.20;60.21;102345.44;4974311;28;20047;-68
2024/01/30 09:52:45;;;;;;;20.90;8.60;;;;;;;4.46;59.38;102342.69;4973348;28;20050;-68
2024/01/30 09:55:13;;;;;;;20.15;8.32;;;;;;;4.64;58.81;102347.38;4973512;28;20046;-67
2024/01/30 09:57:41;;;;;;;20.77;8.95;;;;;;;4.81;58.37;102344.06;4973793;28;20047;-68
2024/01/30 10:00:08;;;;;;;14.52;8.25;;;;;;;4.95;57.53;102332.78;4972870;28;20102;-69
2024/01/30 10:02:36;;;;;;;15.18;7.95;;;;;;;5.00;57.58;102333.50;4963252;28;20121;-68
2024/01/30 10:05:03;;;;;;;18.73;8.52;;;;;;;5.26;56.05;102327.97;4973329;28;20054;-68
2024/01/30 10:07:30;;;;;;;17.10;7.60;;;;;;;5.32;55.71;102328.66;4973479;28;20051;-67
2024/01/30 10:09:57;;;;;;;20.55;7.40;;;;;;;5.62;54.98;102322.03;4973757;28;20059;-68
2024/01/30 10:12:28;;;;;;;15.13;7.25;;;;;;;5.90;53.62;102316.34;4972969;28;20050;-70
2024/01/30 10:14:56;;;;;;;17.50;7.93;;;;;;;5.95;53.34;102329.59;4973299;28;20088;-69
2024/01/30 10:17:25;;;;;;;17.02;7.50;;;;;;;5.98;53.12;102318.69;4973150;28;20579;-70
2024/01/30 10:19:59;;;;;;;17.48;7.57;;;;;;;6.36;52.97;102325.97;4973796;28;20051;-69
2024/01/30 10:22:28;;;;;;;20.40;8.05;;;;;;;6.35;51.71;102316.13;4973645;28;20101;-69
2024/01/30 10:24:55;;;;;;;24.88;8.43;;;;;;;6.26;51.49;102319.25;4956333;28;20419;-68
2024/01/30 10:27:27;;;;;;;16.67;7.55;;;;;;;6.35;52.18;102309.84;4973300;28;20054;-69
2024/01/30 10:29:54;;;;;;;19.90;7.80;;;;;;;6.56;51.40;102319.66;4973247;28;20416;-69
2024/01/30 10:32:21;;;;;;;22.30;7.13;;;;;;;6.20;52.23;102319.50;4973232;28;20054;-69
2024/01/30 10:34:47;;;;;;;20.17;8.27;;;;;;;6.20;51.69;102314.13;4974113;28;20062;-68
2024/01/30 10:37:16;;;;;;;23.33;7.18;;;;;;;6.28;51.67;102314.66;4957204;28;20101;-68
2024/01/30 10:39:44;;;;;;;21.15;6.93;;;;;;;6.12;51.49;102310.88;4973692;28;20134;-69
2024/01/30 10:42:18;;;;;;;18.65;7.30;;;;;;;6.05;51.66;102314.78;4974045;28;20069;-69
2024/01/30 10:45:08;;;;;;;13.52;6.85;;;;;;;6.00;51.82;102309.63;4956286;28;20503;-69
2024/01/30 10:47:36;;;;;;;19.27;7.15;;;;;;;6.11;51.50;102306.44;4972784;28;20123;-69
2024/01/30 10:50:04;;;;;;;14.05;7.55;;;;;;;6.11;51.48;102303.75;4972840;28;20046;-70
2024/01/30 10:52:32;;;;;;;20.92;6.93;;;;;;;6.12;51.17;102308.19;4972287;28;20097;-69
2024/01/30 10:54:59;;;;;;;14.27;6.63;;;;;;;6.23;51.27;102307.72;4972905;28;20102;-69
2024/01/30 10:57:27;;;;;;;11.45;6.07;;;;;;;6.24;50.87;102310.31;4972506;28;20051;-70
2024/01/30 10:59:58;;;;;;;15.65;6.95;;;;;;;6.20;51.09;102308.72;4955893;28;20058;-69
2024/01/30 11:02:25;;;;;;;20.80;7.55;;;;;;;6.47;50.71;102308.44;4972481;28;20102;-69
2024/01/30 11:04:59;;;;;;;14.13;7.65;;;;;;;6.47;50.81;102309.31;4972717;28;20500;-69
2024/01/30 11:07:28;;;;;;;14.70;7.53;;;;;;;6.04;51.06;102303.13;4972722;28;20495;-68
2024/01/30 11:10:00;;;;;;;19.63;7.30;;;;;;;6.14;51.22;102309.00;4972744;28;20093;-69
2024/01/30 11:12:28;;;;;;;16.35;7.35;;;;;;;6.00;51.41;102312.31;4972361;28;20134;-68
2024/01/30 11:15:05;;;;;;;15.43;7.03;;;;;;;6.10;51.46;102307.38;4972137;28;20053;-69
2024/01/30 11:17:51;;;;;;;16.27;7.28;;;;;;;6.19;51.34;102306.97;4972127;28;20061;-69
2024/01/30 11:20:27;;;;;;;14.52;7.18;;;;;;;6.13;51.58;102301.84;4971930;28;20492;-70
2024/01/30 11:22:55;;;;;;;18.45;7.47;;;;;;;6.05;51.93;102304.88;4971627;28;20050;-69
2024/01/30 11:25:23;;;;;;;14.82;7.03;;;;;;;6.03;52.43;102301.38;4972336;28;20047;-69
2024/01/30 11:27:59;;;;;;;19.35;7.53;;;;;;;6.18;51.84;102299.84;4971976;28;20765;-69